Time,TemperatureF,DewpointF,PressureIn,WindDirection,WindDirectionDegrees,WindSpeedMPH,WindSpeedGustMPH,Humidity,HourlyPrecipIn,Conditions,Clouds,dailyrainin,SoftwareType,DateUTC
2013-08-22 00:10:00,68.4,64.7,29.95,West,270,0.0,-999.0,88,-99.99,,,0.00,Acu-Link.com,2013-08-22 04:10:00,
2013-08-22 00:25:00,68.4,64.7,29.94,East,90,0.0,-999.0,88,-99.99,,,0.00,Acu-Link.com,2013-08-22 04:25:00,
2013-08-22 00:40:00,68.4,64.7,29.95,NE,45,1.1,-999.0,88,-99.99,,,0.00,Acu-Link.com,2013-08-22 04:40:00,
2013-08-22 00:56:00,68.0,64.3,29.95,NNW,337,0.0,-999.0,88,-99.99,,,0.00,Acu-Link.com,2013-08-22 04:56:00,
2013-08-22 01:11:00,67.5,63.8,29.96,South,180,0.0,-999.0,88,-99.99,,,0.00,Acu-Link.com,2013-08-22 05:11:00,
2013-08-22 01:26:00,67.3,63.9,29.96,NE,45,0.0,-999.0,89,-99.99,,,0.00,Acu-Link.com,2013-08-22 05:26:00,
2013-08-22 01:41:00,66.9,63.5,29.95,SW,225,0.0,-999.0,89,-99.99,,,0.00,Acu-Link.com,2013-08-22 05:41:00,
2013-08-22 01:56:00,66.6,63.6,29.95,NE,45,0.0,-999.0,90,-99.99,,,0.00,Acu-Link.com,2013-08-22 05:56:00,
2013-08-22 02:12:00,66.2,63.5,29.96,NNW,337,0.0,-999.0,91,-99.99,,,0.00,Acu-Link.com,2013-08-22 06:12:00,
2013-08-22 02:27:00,66.0,63.6,29.96,NNE,22,0.0,-999.0,92,-99.99,,,0.00,Acu-Link.com,2013-08-22 06:27:00,
2013-08-22 02:42:00,65.8,63.4,29.95,ENE,67,0.0,-999.0,92,-99.99,,,0.00,Acu-Link.com,2013-08-22 06:42:00,
2013-08-22 02:57:00,65.8,63.4,29.95,NNE,22,0.0,-999.0,92,-99.99,,,0.00,Acu-Link.com,2013-08-22 06:57:00,
2013-08-22 03:13:00,65.7,63.6,29.94,WSW,247,0.0,-999.0,93,-99.99,,,0.00,Acu-Link.com,2013-08-22 07:13:00,
2013-08-22 03:28:00,65.5,63.4,29.95,WNW,292,0.0,-999.0,93,-99.99,,,0.00,Acu-Link.com,2013-08-22 07:28:00,
2013-08-22 03:43:00,65.3,63.2,29.94,WSW,247,0.0,-999.0,93,-99.99,,,0.00,Acu-Link.com,2013-08-22 07:43:00,
2013-08-22 03:58:00,65.1,63.3,29.94,WNW,292,0.0,-999.0,94,-99.99,,,0.00,Acu-Link.com,2013-08-22 07:58:00,
2013-08-22 04:13:00,65.1,63.3,29.93,NNE,22,0.0,-999.0,94,-99.99,,,0.00,Acu-Link.com,2013-08-22 08:13:00,
2013-08-22 04:29:00,65.1,63.3,29.94,NE,45,0.0,-999.0,94,-99.99,,,0.00,Acu-Link.com,2013-08-22 08:29:00,
2013-08-22 04:44:00,65.1,63.3,29.94,WSW,247,0.0,-999.0,94,-99.99,,,0.00,Acu-Link.com,2013-08-22 08:44:00,
2013-08-22 04:59:00,64.9,63.1,29.93,NNE,22,0.0,-999.0,94,-99.99,,,0.00,Acu-Link.com,2013-08-22 08:59:00,
2013-08-22 05:14:00,64.8,63.0,29.92,ESE,112,0.0,-999.0,94,-99.99,,,0.00,Acu-Link.com,2013-08-22 09:14:00,
2013-08-22 05:29:00,64.6,63.1,29.91,ENE,67,0.0,-999.0,95,-99.99,,,0.00,Acu-Link.com,2013-08-22 09:29:00,
2013-08-22 05:44:00,64.4,62.9,29.91,NNE,22,0.0,-999.0,95,-99.99,,,0.00,Acu-Link.com,2013-08-22 09:44:00,
2013-08-22 05:59:00,64.4,62.9,29.92,NE,45,2.2,-999.0,95,-99.99,,,0.00,Acu-Link.com,2013-08-22 09:59:00,
2013-08-22 06:15:00,64.4,62.9,29.91,NE,45,0.0,-999.0,95,-99.99,,,0.00,Acu-Link.com,2013-08-22 10:15:00,
2013-08-22 06:30:00,64.4,63.2,29.92,SSW,202,0.0,-999.0,96,-99.99,,,0.00,Acu-Link.com,2013-08-22 10:30:00,
2013-08-22 06:49:00,64.6,63.4,29.91,East,90,0.0,-999.0,96,-99.99,,,0.00,Acu-Link.com,2013-08-22 10:49:00,
2013-08-22 08:36:00,70.3,66.2,29.89,WNW,292,0.0,-999.0,87,-99.99,,,0.00,Acu-Link.com,2013-08-22 12:36:00,
2013-08-22 08:51:00,71.4,67.0,29.90,ESE,112,0.0,-999.0,86,-99.99,,,0.00,Acu-Link.com,2013-08-22 12:51:00,
2013-08-22 09:06:00,72.7,67.6,29.90,NW,315,2.2,-999.0,84,-99.99,,,0.00,Acu-Link.com,2013-08-22 13:06:00,
2013-08-22 09:21:00,73.6,68.1,29.89,ENE,67,0.0,-999.0,83,-99.99,,,0.00,Acu-Link.com,2013-08-22 13:21:00,
2013-08-22 09:37:00,74.5,67.9,29.89,NNE,22,4.2,-999.0,80,-99.99,,,0.00,Acu-Link.com,2013-08-22 13:37:00,
2013-08-22 09:52:00,75.7,68.3,29.89,NE,45,3.7,-999.0,78,-99.99,,,0.00,Acu-Link.com,2013-08-22 13:52:00,
2013-08-22 10:07:00,77.4,69.6,29.89,South,180,1.1,-999.0,77,-99.99,,,0.00,Acu-Link.com,2013-08-22 14:07:00,
2013-08-22 10:22:00,78.8,69.4,29.89,NNW,337,1.7,-999.0,73,-99.99,,,0.00,Acu-Link.com,2013-08-22 14:22:00,
2013-08-22 10:37:00,79.5,70.5,29.90,SSW,202,1.7,-999.0,74,-99.99,,,0.00,Acu-Link.com,2013-08-22 14:37:00,
2013-08-22 10:53:00,80.4,71.7,29.88,East,90,0.0,-999.0,75,-99.99,,,0.00,Acu-Link.com,2013-08-22 14:53:00,
2013-08-22 11:08:00,81.3,71.0,29.89,SSW,202,2.7,-999.0,71,-99.99,,,0.00,Acu-Link.com,2013-08-22 15:08:00,
2013-08-22 11:23:00,80.8,70.5,29.88,West,270,4.2,-999.0,71,-99.99,,,0.00,Acu-Link.com,2013-08-22 15:23:00,
2013-08-22 11:38:00,81.0,70.7,29.87,WSW,247,3.2,-999.0,71,-99.99,,,0.00,Acu-Link.com,2013-08-22 15:38:00,
2013-08-22 11:53:00,81.0,71.5,29.89,SW,225,2.2,-999.0,73,-99.99,,,0.00,Acu-Link.com,2013-08-22 15:53:00,
2013-08-22 12:09:00,80.4,71.3,29.86,NNW,337,2.2,-999.0,74,-99.99,,,0.00,Acu-Link.com,2013-08-22 16:09:00,
2013-08-22 12:24:00,80.4,71.3,29.86,SW,225,0.0,-999.0,74,-99.99,,,0.00,Acu-Link.com,2013-08-22 16:24:00,
2013-08-22 12:39:00,80.8,72.1,29.86,West,270,3.7,-999.0,75,-99.99,,,0.00,Acu-Link.com,2013-08-22 16:39:00,
2013-08-22 12:54:00,80.4,72.5,29.85,ENE,67,2.7,-999.0,77,-99.99,,,0.00,Acu-Link.com,2013-08-22 16:54:00,
2013-08-22 13:09:00,80.1,73.4,29.86,ESE,112,1.7,-999.0,80,-99.99,,,0.00,Acu-Link.com,2013-08-22 17:09:00,
2013-08-22 13:25:00,78.8,72.8,29.86,West,270,2.7,-999.0,82,-99.99,,,0.00,Acu-Link.com,2013-08-22 17:25:00,
2013-08-22 13:40:00,78.4,72.4,29.86,SSE,157,4.7,-999.0,82,-99.99,,,0.00,Acu-Link.com,2013-08-22 17:40:00,
2013-08-22 13:55:00,78.4,72.4,29.85,South,180,2.2,-999.0,82,-99.99,,,0.00,Acu-Link.com,2013-08-22 17:55:00,
2013-08-22 14:10:00,78.6,72.6,29.85,West,270,4.2,-999.0,82,-99.99,,,0.00,Acu-Link.com,2013-08-22 18:10:00,
2013-08-22 14:26:00,77.9,71.6,29.83,East,90,3.2,-999.0,81,-99.99,,,0.00,Acu-Link.com,2013-08-22 18:26:00,
2013-08-22 14:41:00,77.0,70.3,29.85,SW,225,3.2,-999.0,80,-99.99,,,0.00,Acu-Link.com,2013-08-22 18:41:00,
2013-08-22 14:56:00,77.4,71.5,29.82,SW,225,2.7,-999.0,82,-99.99,,,0.00,Acu-Link.com,2013-08-22 18:56:00,
2013-08-22 15:11:00,77.0,70.7,29.81,East,90,2.2,-999.0,81,-99.99,,,0.00,Acu-Link.com,2013-08-22 19:11:00,
2013-08-22 15:26:00,77.0,70.3,29.81,ENE,67,2.7,-999.0,80,-99.99,,,0.00,Acu-Link.com,2013-08-22 19:26:00,
2013-08-22 15:42:00,76.8,70.9,29.78,West,270,2.7,-999.0,82,-99.99,,,0.00,Acu-Link.com,2013-08-22 19:42:00,
2013-08-22 15:57:00,76.1,70.9,29.79,West,270,0.0,-999.0,84,-99.99,,,0.00,Acu-Link.com,2013-08-22 19:57:00,
2013-08-22 16:12:00,76.1,70.5,29.79,SSW,202,1.7,-999.0,83,-99.99,,,0.00,Acu-Link.com,2013-08-22 20:12:00,
2013-08-22 16:27:00,77.0,71.1,29.79,SSE,157,4.7,-999.0,82,-99.99,,,0.00,Acu-Link.com,2013-08-22 20:27:00,
2013-08-22 16:42:00,76.5,70.2,29.78,ENE,67,4.7,-999.0,81,-99.99,,,0.00,Acu-Link.com,2013-08-22 20:42:00,
2013-08-22 16:58:00,78.1,71.8,29.78,ESE,112,4.7,-999.0,81,-99.99,,,0.00,Acu-Link.com,2013-08-22 20:58:00,
2013-08-22 17:13:00,77.7,70.7,29.77,West,270,2.7,-999.0,79,-99.99,,,0.00,Acu-Link.com,2013-08-22 21:13:00,
2013-08-22 17:28:00,78.3,70.9,29.78,West,270,2.7,-999.0,78,-99.99,,,0.00,Acu-Link.com,2013-08-22 21:28:00,
2013-08-22 17:43:00,76.6,70.0,29.78,West,270,1.7,-999.0,80,-99.99,,,0.00,Acu-Link.com,2013-08-22 21:43:00,
2013-08-22 17:58:00,75.6,69.7,29.77,NE,45,1.1,-999.0,82,-99.99,,,0.00,Acu-Link.com,2013-08-22 21:58:00,
2013-08-22 18:14:00,75.2,69.7,29.76,SW,225,1.1,-999.0,83,-99.99,,,0.00,Acu-Link.com,2013-08-22 22:14:00,
2013-08-22 18:29:00,75.4,69.9,29.78,East,90,1.7,-999.0,83,-99.99,,,0.00,Acu-Link.com,2013-08-22 22:29:00,
2013-08-22 18:44:00,75.2,70.0,29.76,West,270,0.0,-999.0,84,-99.99,,,0.00,Acu-Link.com,2013-08-22 22:44:00,
2013-08-22 18:59:00,74.5,70.0,29.77,ESE,112,3.2,-999.0,86,-99.99,,,0.00,Acu-Link.com,2013-08-22 22:59:00,
2013-08-22 19:15:00,73.9,69.8,29.76,SSW,202,0.0,-999.0,87,-99.99,,,0.00,Acu-Link.com,2013-08-22 23:15:00,
2013-08-22 19:30:00,73.4,70.0,29.77,ENE,67,3.7,-999.0,89,-99.99,,,0.00,Acu-Link.com,2013-08-22 23:30:00,
2013-08-22 19:45:00,73.0,69.9,29.77,WSW,247,1.1,-999.0,90,-99.99,,,0.00,Acu-Link.com,2013-08-22 23:45:00,
2013-08-22 20:00:00,72.9,69.8,29.77,SSE,157,0.0,-999.0,90,-99.99,,,0.00,Acu-Link.com,2013-08-23 00:00:00,
2013-08-22 20:15:00,72.7,69.9,29.78,SSW,202,1.7,-999.0,91,-99.99,,,0.00,Acu-Link.com,2013-08-23 00:15:00,
2013-08-22 20:31:00,72.7,69.9,29.78,South,180,1.1,-999.0,91,-99.99,,,0.00,Acu-Link.com,2013-08-23 00:31:00,
2013-08-22 20:46:00,72.3,69.5,29.76,ESE,112,0.0,-999.0,91,-99.99,,,0.00,Acu-Link.com,2013-08-23 00:46:00,
2013-08-22 21:01:00,72.1,69.6,29.77,NNE,22,2.2,-999.0,92,-99.99,,,0.00,Acu-Link.com,2013-08-23 01:01:00,
2013-08-22 21:16:00,72.0,69.5,29.78,NNW,337,2.7,-999.0,92,-99.99,,,0.00,Acu-Link.com,2013-08-23 01:16:00,
2013-08-22 21:31:00,71.8,69.7,29.78,NW,315,1.7,-999.0,93,-99.99,,,0.00,Acu-Link.com,2013-08-23 01:31:00,
2013-08-22 21:47:00,71.8,69.7,29.76,WSW,247,2.2,-999.0,93,-99.99,,,0.00,Acu-Link.com,2013-08-23 01:47:00,
2013-08-22 22:02:00,71.6,69.5,29.76,SSW,202,1.7,-999.0,93,-99.99,,,0.00,Acu-Link.com,2013-08-23 02:02:00,
2013-08-22 22:17:00,71.6,69.5,29.76,NE,45,1.7,-999.0,93,-99.99,,,0.00,Acu-Link.com,2013-08-23 02:17:00,
2013-08-22 22:32:00,71.2,69.1,29.75,WNW,292,1.1,-999.0,93,-99.99,,,0.00,Acu-Link.com,2013-08-23 02:32:00,
2013-08-22 22:47:00,71.2,69.1,29.75,ESE,112,3.7,-999.0,93,-99.99,,,0.00,Acu-Link.com,2013-08-23 02:47:00,
2013-08-22 23:03:00,71.1,69.0,29.75,WNW,292,2.2,-999.0,93,-99.99,,,0.00,Acu-Link.com,2013-08-23 03:03:00,
2013-08-22 23:18:00,70.9,68.8,29.75,East,90,3.2,-999.0,93,-99.99,,,0.00,Acu-Link.com,2013-08-23 03:18:00,
2013-08-22 23:33:00,70.5,68.4,29.74,WNW,292,1.1,-999.0,93,-99.99,,,0.00,Acu-Link.com,2013-08-23 03:33:00,
2013-08-22 23:48:00,70.5,68.7,29.75,NW,315,2.2,-999.0,94,-99.99,,,0.00,Acu-Link.com,2013-08-23 03:48:00,